الصفحة الرئيسية
METAR-TAF:

METAR-TAF

مطار :

Tirupati, الهند

دائرة عرض: 13-38-16N, خط طول: 79-32-50E, ارتفاع: 107 متر

مراقبة الطقس الحالي

تاريخ ووقت الإصدار 8ساعات و 9 دقيقة قبل الساعة 15:00UTC
ريح 2 عقدةمن اتجاهات متغيرة
درجة الحرارة 33°درجة مئوية
الرطوبة 67%
ضغط 1005 hPa
الرؤية: 6000 متر
غيوم قليلة على ارتفاع 2000 قدم

METAR: VOTP 251500Z VRB02KT 6000 FEW020 33/26 Q1005 NOSIG

زمن: 04:39 (23:09 UTC)

توقعات

تاريخ ووقت الإصدار 15ساعات و 9 دقيقة قبل الساعة 08:00UTC
التوقعات صالحة من25 الساعة 09 UTC إلى 25 الساعة 18 UTC
ريح 7 عقدة من الغرب تتزايد حتى 20 عقدة
الرؤية: 6000 متر
غيوم متفرقة على ارتفاع 1500 قدم
غيوم متفرقة على ارتفاع 10000 قدم
مؤقت
من 25 الساعة 11 UTC إلى 25 الساعة 18 UTC
غيوم قليلة على ارتفاع 3000 قدم, مزن ركامية عمودية.

TAF: VOTP 250800Z 2509/2518 26007G20KT 6000 SCT015 SCT100 TEMPO 2511/2518 FEW030TCU

أرصاد الطقس والتوقعات من أكثر من 4000 مطار (تقارير الطقس للمطار METAR والتنبؤ بالطقس بالمطارTAF).

المحطات المتاحة هي النقط الصفراء والحمراء على الخريطة.

حرك المؤشر فوق النقطة لمعرفة اسم المحطة.

ثم انقر لمعرفة أرصاد وتوقعات الطقس.

لتغيير الخارطة: اضغط على الأزرار الخضراء مع رمز الصليب الأسود للتكبير. على الزر الأخضر مع شرطة للتصغير، أو على الأسهم الخضراء للخرائط المجاورة.


METAR-TAF: